createdAt,value
2023-04-21T00:02:13.203Z,101476.53
2023-04-21T00:07:16.615Z,101467.66
2023-04-21T00:12:18.281Z,101472.88
2023-04-21T00:17:20.349Z,101462.22
2023-04-21T00:22:23.459Z,101465.75
2023-04-21T00:27:25.653Z,101459.69
2023-04-21T00:32:27.811Z,101461.47
2023-04-21T00:37:31.389Z,101462.34
2023-04-21T00:42:33.430Z,101462.31
2023-04-21T00:47:35.680Z,101460.56
2023-04-21T00:52:39.740Z,101460.59
2023-04-21T00:57:42.131Z,101469.41
2023-04-21T01:02:44.585Z,101459.75
2023-04-21T01:07:48.398Z,101462.38
2023-04-21T01:12:50.767Z,101460.66
2023-04-21T01:17:54.567Z,101453.59
2023-04-21T01:22:57.954Z,101455.38
2023-04-21T01:28:00.008Z,101450.03
2023-04-21T01:33:02.246Z,101443.81
2023-04-21T01:38:05.921Z,101444.75
2023-04-21T01:43:08.368Z,101438.59
2023-04-21T01:48:10.570Z,101440.34
2023-04-21T01:53:14.188Z,101441.22
2023-04-21T01:58:16.356Z,101427.97
2023-04-21T02:03:19.128Z,101430.59
2023-04-21T02:08:22.521Z,101435.00
2023-04-21T02:13:24.187Z,101428.78
2023-04-21T02:18:26.239Z,101423.47
2023-04-21T02:23:29.252Z,101419.03
2023-04-21T02:28:30.967Z,101425.16
2023-04-21T02:33:32.744Z,101421.59
2023-04-21T02:38:35.817Z,101424.22
2023-04-21T02:43:37.988Z,101422.44
2023-04-21T02:48:39.985Z,101415.44
2023-04-21T02:53:43.425Z,101426.81
2023-04-21T02:58:45.557Z,101426.84
2023-04-21T03:03:47.897Z,101423.28
2023-04-21T03:08:51.521Z,101428.59
2023-04-21T03:13:53.588Z,101423.19
2023-04-21T03:18:55.602Z,101427.53
2023-04-21T03:23:58.884Z,101425.06
2023-04-21T03:29:01.045Z,101419.75
2023-04-21T03:34:03.173Z,101417.91
2023-04-21T03:39:19.227Z,101421.41
2023-04-21T03:44:25.373Z,101431.09
2023-04-21T03:49:27.597Z,101425.75
2023-04-21T03:54:31.052Z,101427.34
2023-04-21T03:59:33.240Z,101424.78
2023-04-21T04:04:35.654Z,101423.03
2023-04-21T04:09:39.201Z,101426.53
2023-04-21T04:14:41.246Z,101436.22
2023-04-21T04:19:43.271Z,101440.59
2023-04-21T04:24:46.707Z,101436.31
2023-04-21T04:29:48.431Z,101431.91
2023-04-21T04:34:50.474Z,101437.25
2023-04-21T04:39:54.879Z,101426.63
2023-04-21T04:44:57.002Z,101431.03
2023-04-21T04:49:58.674Z,101435.53
2023-04-21T04:55:01.830Z,101437.38
2023-04-21T05:00:04.344Z,101433.00
2023-04-21T05:05:07.432Z,101443.63
2023-04-21T05:10:11.642Z,101443.88
2023-04-21T05:15:13.620Z,101439.25
2023-04-21T05:20:15.352Z,101443.19
2023-04-21T05:25:18.379Z,101450.00
2023-04-21T05:30:20.754Z,101444.34
2023-04-21T05:35:22.407Z,101441.69
2023-04-21T05:40:25.832Z,101448.19
2023-04-21T05:45:27.836Z,101451.38
2023-04-21T05:50:29.549Z,101448.31
2023-04-21T05:55:34.306Z,101451.78
2023-04-21T06:00:36.007Z,101455.19
2023-04-21T06:05:38.644Z,101452.41
2023-04-21T06:10:41.792Z,101447.44
2023-04-21T06:15:44.162Z,101436.22
2023-04-21T06:20:50.741Z,101438.53
2023-04-21T06:26:05.748Z,101433.13
2023-04-21T06:31:08.960Z,101422.53
2023-04-21T06:36:11.197Z,101421.66
2023-04-21T06:41:14.734Z,101428.03
2023-04-21T06:46:16.846Z,101421.34
2023-04-21T06:51:18.744Z,101418.59
2023-04-21T06:56:22.319Z,101422.06
2023-04-21T07:01:24.077Z,101417.41
2023-04-21T07:06:27.212Z,101421.81
2023-04-21T07:11:30.693Z,101423.69
2023-04-21T07:16:33.415Z,101431.50
2023-04-21T07:21:35.469Z,101421.63
2023-04-21T07:26:38.907Z,101420.50
2023-04-21T07:31:41.112Z,101420.22
2023-04-21T07:36:43.338Z,101410.09
2023-04-21T07:41:47.071Z,101409.91
2023-04-21T07:46:49.149Z,101417.72
2023-04-21T07:51:52.377Z,101408.41
2023-04-21T07:56:55.806Z,101409.25
2023-04-21T08:01:58.340Z,101407.78
2023-04-21T08:07:00.834Z,101412.00
2023-04-21T08:12:04.891Z,101411.75
2023-04-21T08:22:27.390Z,101406.34
2023-04-21T08:27:30.770Z,101407.63
2023-04-21T08:32:32.878Z,101405.88
2023-04-21T08:37:37.032Z,101389.09
2023-04-21T08:42:40.301Z,101395.09
2023-04-21T08:47:43.203Z,101381.25
2023-04-21T08:52:45.398Z,101381.66
2023-04-21T08:57:49.019Z,101377.63
2023-04-21T09:03:00.688Z,101382.19
2023-04-21T09:08:11.579Z,101377.66
2023-04-21T09:13:16.250Z,101384.44
2023-04-21T09:18:20.055Z,101390.78
2023-04-21T09:23:22.145Z,101383.31
2023-04-21T09:28:31.706Z,101381.81
2023-04-21T09:38:36.592Z,101373.59
2023-04-21T09:43:40.132Z,101375.00
2023-04-21T09:48:44.658Z,101360.63
2023-04-21T09:53:50.282Z,101359.03
2023-04-21T09:58:54.882Z,101360.09
2023-04-21T10:03:57.970Z,101355.47
2023-04-21T10:09:01.303Z,101353.22
2023-04-21T10:14:05.286Z,101347.41
2023-04-21T10:19:25.210Z,101341.38
2023-04-21T10:24:28.839Z,101346.03
2023-04-21T10:29:48.025Z,101338.84
2023-04-21T10:34:56.879Z,101326.34
2023-04-21T10:39:59.153Z,101318.19
2023-04-21T10:45:07.707Z,101310.38
2023-04-21T10:50:21.167Z,101307.25
2023-04-21T10:55:26.764Z,101290.88
2023-04-21T11:00:30.204Z,101279.13
2023-04-21T11:05:35.762Z,101291.69
2023-04-21T11:10:46.757Z,101286.78
2023-04-21T11:16:05.594Z,101266.50
2023-04-21T11:21:13.130Z,101273.34
2023-04-21T11:26:15.003Z,101259.22
2023-04-21T11:31:18.610Z,101253.31
2023-04-21T11:36:22.226Z,101256.16
2023-04-21T11:41:24.743Z,101250.47
2023-04-21T11:46:28.949Z,101245.34
2023-04-21T11:51:34.485Z,101241.13
2023-04-21T11:56:37.883Z,101243.13
2023-04-21T12:01:45.786Z,101241.94
2023-04-21T12:06:55.105Z,101241.13
2023-04-21T12:12:00.191Z,101237.69
2023-04-21T12:17:06.994Z,101222.22
2023-04-21T12:22:09.856Z,101222.84
2023-04-21T12:27:13.012Z,101226.31
2023-04-21T12:32:16.640Z,101222.66
2023-04-21T12:37:19.302Z,101217.13
2023-04-21T12:42:21.465Z,101215.06
2023-04-21T12:47:25.062Z,101221.56
2023-04-21T12:52:27.409Z,101207.91
2023-04-21T12:57:29.516Z,101190.50
2023-04-21T13:02:33.119Z,101192.75
2023-04-21T13:07:35.372Z,101194.91
2023-04-21T13:12:37.898Z,101186.28
2023-04-21T13:17:41.375Z,101180.94
2023-04-21T13:22:43.279Z,101177.50
2023-04-21T13:27:45.247Z,101175.69
2023-04-21T13:32:49.934Z,101154.75
2023-04-21T13:37:52.315Z,101164.88
2023-04-21T13:42:54.547Z,101156.84
2023-04-21T13:47:57.962Z,101145.34
2023-04-21T13:53:00.029Z,101146.91
2023-04-21T13:58:02.193Z,101132.09
2023-04-21T14:03:05.900Z,101132.81
2023-04-21T14:08:08.408Z,101126.09
2023-04-21T14:13:15.104Z,101108.59
2023-04-21T14:18:31.048Z,101119.00
2023-04-21T14:23:33.255Z,101104.59
2023-04-21T14:28:35.226Z,101099.19
2023-04-21T14:33:38.429Z,101094.31
2023-04-21T14:38:40.185Z,101098.16
2023-04-21T14:43:42.287Z,101067.06
2023-04-21T14:48:46.486Z,101062.44
2023-04-21T14:53:50.452Z,101074.44
2023-04-21T14:58:52.578Z,101066.97
2023-04-21T15:03:56.485Z,101059.25
2023-04-21T15:08:59.088Z,101052.50
2023-04-21T15:14:01.432Z,101046.78
2023-04-21T15:19:04.888Z,101046.78
2023-04-21T15:24:07.056Z,101029.72
2023-04-21T15:29:08.761Z,101024.50
2023-04-21T15:34:12.135Z,101025.38
2023-04-21T15:39:14.325Z,101019.09
2023-04-21T15:44:16.774Z,101013.00
2023-04-21T15:49:20.209Z,101018.97
2023-04-21T15:54:22.241Z,101024.78
2023-04-21T15:59:25.879Z,101017.78
2023-04-21T16:04:29.428Z,101008.88
2023-04-21T16:09:32.254Z,101006.19
2023-04-21T16:14:46.667Z,101006.50
2023-04-21T16:19:55.238Z,100992.84
2023-04-21T16:24:57.488Z,100992.91
2023-04-21T16:30:00.206Z,100985.94
2023-04-21T16:35:04.658Z,100984.75
2023-04-21T16:40:08.194Z,100980.25
2023-04-21T16:45:10.590Z,100976.94
2023-04-21T16:50:13.753Z,100966.44
2023-04-21T16:55:15.465Z,100965.75
2023-04-21T17:00:28.280Z,100959.63
2023-04-21T17:05:32.559Z,100969.47
2023-04-21T17:10:35.522Z,100959.31
2023-04-21T17:15:40.116Z,100958.25
2023-04-21T17:20:45.533Z,100951.22
2023-04-21T17:25:47.878Z,100963.31
2023-04-21T17:30:51.779Z,100949.00
2023-04-21T17:36:03.440Z,100959.38
2023-04-21T17:41:05.875Z,100957.06
2023-04-21T17:46:08.180Z,100960.50
2023-04-21T17:51:11.906Z,100954.81
2023-04-21T17:56:14.059Z,100959.09
2023-04-21T18:01:16.145Z,100966.59
2023-04-21T18:06:19.765Z,100963.91
2023-04-21T18:11:21.972Z,100960.19
2023-04-21T18:16:24.327Z,100963.06
2023-04-21T18:21:27.680Z,100967.66
2023-04-21T18:26:29.405Z,100963.06
2023-04-21T18:31:31.203Z,100960.13
2023-04-21T18:36:37.026Z,100956.16
2023-04-21T18:41:40.379Z,100957.81
2023-04-21T18:46:42.498Z,100959.88
2023-04-21T18:51:45.657Z,100958.66
2023-04-21T18:56:47.453Z,100960.75
2023-04-21T19:01:50.008Z,100951.47
2023-04-21T19:06:53.549Z,100950.69
2023-04-21T19:11:56.358Z,100959.06
2023-04-21T19:16:58.490Z,100960.00
2023-04-21T19:22:01.710Z,100962.13
2023-04-21T19:27:03.525Z,100956.66
2023-04-21T19:32:05.593Z,100966.88
2023-04-21T19:37:09.064Z,100964.47
2023-04-21T19:42:10.811Z,100956.91
2023-04-21T19:47:12.991Z,100954.91
2023-04-21T19:52:16.105Z,100958.56
2023-04-21T19:57:17.877Z,100968.69
2023-04-21T20:02:19.690Z,100961.16
2023-04-21T20:07:23.366Z,100970.69
2023-04-21T20:12:25.561Z,100963.53
2023-04-21T20:17:27.749Z,100975.88
2023-04-21T20:22:31.368Z,100966.53
2023-04-21T20:27:33.811Z,100962.72
2023-04-21T20:32:35.546Z,100968.72
2023-04-21T20:37:38.807Z,100975.22
2023-04-21T20:42:41.327Z,100970.03
2023-04-21T20:47:43.112Z,100977.50
2023-04-21T20:52:46.615Z,100979.41
2023-04-21T20:57:48.363Z,100971.56
2023-04-21T21:02:50.675Z,100983.03
2023-04-21T21:07:54.582Z,100991.00
2023-04-21T21:12:56.459Z,100985.28
2023-04-21T21:17:58.922Z,100985.34
2023-04-21T21:23:02.375Z,100992.53
2023-04-21T21:28:04.640Z,100993.47
2023-04-21T21:33:06.675Z,100993.78
2023-04-21T21:38:10.581Z,100988.56
2023-04-21T21:43:12.720Z,100992.06
2023-04-21T21:48:14.587Z,100990.53
2023-04-21T21:53:18.181Z,100988.19
2023-04-21T21:58:20.811Z,100989.16
2023-04-21T22:03:23.000Z,100996.59
2023-04-21T22:08:26.769Z,100991.13
2023-04-21T22:13:29.005Z,101000.19
2023-04-21T22:18:31.402Z,100995.34
2023-04-21T22:23:35.108Z,100999.78
2023-04-21T22:28:37.163Z,100998.84
2023-04-21T22:33:39.078Z,100997.25
2023-04-21T22:38:42.182Z,100993.63
2023-04-21T22:43:44.168Z,101003.53
2023-04-21T22:48:46.350Z,101010.88
2023-04-21T22:53:49.845Z,101013.56
2023-04-21T22:58:52.010Z,101012.94
2023-04-21T23:03:54.235Z,101006.84
2023-04-21T23:08:57.286Z,101017.72
2023-04-21T23:13:59.391Z,101009.78
2023-04-21T23:19:01.879Z,101000.22
2023-04-21T23:24:05.875Z,101009.19
2023-04-21T23:29:07.970Z,101010.28
2023-04-21T23:34:10.068Z,101015.75
2023-04-21T23:39:13.538Z,101006.13
2023-04-21T23:44:15.874Z,101000.00
2023-04-21T23:49:17.571Z,100998.28
2023-04-21T23:54:20.860Z,101003.63
2023-04-21T23:59:22.560Z,100992.06
